Time;durP1;ratioP1;P1;durP2;ratioP2;P2;SDS_P1;SDS_P2;PMS_P1;PMS_P2;Temp;Humidity;BMP_temperature;BMP_pressure;BME280_temperature;BME280_humidity;BME280_pressure;Samples;Min_cycle;Max_cycle;Signal;HPM_P1;HPM_P2
2022/08/17 00:00:47;;;;;;;43.28;31.65;;;20.20;99.90;;;;;;5116504;27;20035;-68
2022/08/17 00:03:21;;;;;;;38.47;29.77;;;20.20;99.90;;;;;;5129787;27;20035;-69
2022/08/17 00:06:05;;;;;;;41.28;32.83;;;20.20;99.90;;;;;;5130659;27;20043;-68
2022/08/17 00:08:37;;;;;;;43.90;34.60;;;20.10;99.90;;;;;;5133153;27;20386;-68
2022/08/17 00:11:09;;;;;;;38.55;32.15;;;20.10;99.90;;;;;;5132987;27;20050;-68
2022/08/17 00:13:38;;;;;;;39.00;32.45;;;20.10;99.90;;;;;;5131375;27;20047;-67
2022/08/17 00:16:13;;;;;;;40.83;32.42;;;20.00;99.90;;;;;;5129586;27;20107;-67
2022/08/17 00:18:39;;;;;;;41.80;32.20;;;20.00;99.90;;;;;;5129915;27;20043;-67
2022/08/17 00:21:07;;;;;;;48.05;35.55;;;20.00;99.90;;;;;;5128501;27;20112;-67
2022/08/17 00:23:33;;;;;;;40.72;32.42;;;20.00;99.90;;;;;;5127086;27;20464;-68
2022/08/17 00:26:00;;;;;;;43.58;33.10;;;20.00;99.90;;;;;;5116087;27;20135;-67
2022/08/17 00:28:26;;;;;;;44.75;32.75;;;20.00;99.90;;;;;;5125353;27;20047;-68
2022/08/17 00:30:52;;;;;;;43.17;33.00;;;19.90;99.90;;;;;;5129944;28;20092;-66
2022/08/17 00:33:23;;;;;;;42.13;34.42;;;19.90;99.90;;;;;;5129632;28;20056;-68
2022/08/17 00:35:49;;;;;;;43.28;33.67;;;19.90;99.90;;;;;;5125902;28;20063;-69
2022/08/17 00:38:15;;;;;;;40.67;32.60;;;19.90;99.90;;;;;;5111931;28;20425;-68
2022/08/17 00:40:53;;;;;;;44.38;35.13;;;19.90;99.90;;;;;;5131589;27;20038;-68
2022/08/17 00:43:26;;;;;;;47.55;36.08;;;19.90;99.90;;;;;;5133187;27;20123;-69
2022/08/17 00:45:52;;;;;;;48.72;35.92;;;19.90;99.90;;;;;;5128083;27;20130;-68
2022/08/17 00:48:33;;;;;;;41.42;34.08;;;19.80;99.90;;;;;;5131342;28;20039;-69
2022/08/17 00:51:23;;;;;;;39.28;32.85;;;19.80;99.90;;;;;;5128515;28;20036;-68
2022/08/17 00:53:57;;;;;;;45.42;33.00;;;19.80;99.90;;;;;;5133063;28;20112;-68
2022/08/17 00:56:30;;;;;;;45.25;31.42;;;19.80;99.90;;;;;;5132738;27;20050;-69
2022/08/17 00:58:56;;;;;;;47.17;36.03;;;19.80;99.90;;;;;;5121982;28;20036;-68
2022/08/17 01:01:23;;;;;;;44.85;32.33;;;19.80;99.90;;;;;;5119914;27;20051;-68
2022/08/17 01:03:51;;;;;;;47.78;36.35;;;19.80;99.90;;;;;;5125350;27;20110;-68
2022/08/17 01:06:17;;;;;;;45.58;32.53;;;19.70;99.90;;;;;;5115201;28;20066;-68
2022/08/17 01:08:43;;;;;;;45.45;34.85;;;19.70;99.90;;;;;;5111546;28;20499;-68
2022/08/17 01:11:09;;;;;;;42.20;32.55;;;19.70;99.90;;;;;;5122128;27;20113;-69
2022/08/17 01:13:41;;;;;;;42.33;32.72;;;19.80;99.90;;;;;;5121469;27;20101;-68
2022/08/17 01:16:20;;;;;;;50.15;36.30;;;19.70;99.90;;;;;;5134518;27;20050;-67
2022/08/17 01:18:49;;;;;;;48.00;35.95;;;19.70;99.90;;;;;;5128549;27;20096;-68
2022/08/17 01:22:00;;;;;;;45.17;35.10;;;19.70;99.90;;;;;;5116114;28;20410;-67
2022/08/17 01:24:26;;;;;;;45.90;33.25;;;19.70;99.90;;;;;;5102884;27;20145;-68
2022/08/17 01:26:52;;;;;;;50.60;36.45;;;19.60;99.90;;;;;;5134657;27;20130;-68
2022/08/17 01:29:20;;;;;;;45.80;35.20;;;19.60;99.90;;;;;;5126356;27;20039;-67
2022/08/17 01:31:55;;;;;;;43.00;33.30;;;19.60;99.90;;;;;;5130715;27;20100;-68
2022/08/17 01:34:21;;;;;;;47.20;35.85;;;19.60;99.90;;;;;;5132389;27;20039;-69
2022/08/17 01:36:48;;;;;;;42.83;33.28;;;19.60;99.90;;;;;;5122197;27;20046;-69
2022/08/17 01:39:22;;;;;;;40.40;31.80;;;19.50;99.90;;;;;;5124692;27;20050;-68
2022/08/17 01:41:50;;;;;;;42.70;33.30;;;19.50;99.90;;;;;;5129940;27;20042;-68
2022/08/17 01:44:16;;;;;;;45.67;33.15;;;19.50;99.90;;;;;;5133877;27;20049;-68
2022/08/17 01:46:42;;;;;;;44.83;33.42;;;19.50;99.90;;;;;;5125512;27;20509;-68
2022/08/17 01:49:10;;;;;;;47.67;36.85;;;19.50;99.90;;;;;;5134440;27;20047;-68
2022/08/17 01:51:37;;;;;;;47.53;34.88;;;19.40;99.90;;;;;;5134954;27;20093;-69
2022/08/17 01:54:07;;;;;;;44.22;33.53;;;19.40;99.90;;;;;;5134731;27;20126;-67
2022/08/17 01:56:37;;;;;;;49.15;35.30;;;19.40;99.90;;;;;;5134102;27;20095;-68
2022/08/17 01:59:03;;;;;;;54.65;34.22;;;19.30;99.90;;;;;;5132206;27;20498;-68
2022/08/17 02:01:31;;;;;;;46.13;34.22;;;19.30;99.90;;;;;;5133033;27;20412;-68
2022/08/17 02:03:57;;;;;;;46.33;35.88;;;19.40;99.90;;;;;;5118596;27;20451;-69
2022/08/17 02:06:23;;;;;;;46.95;33.30;;;19.30;99.90;;;;;;5112525;27;20482;-68
2022/08/17 02:08:49;;;;;;;50.72;35.10;;;19.30;99.90;;;;;;5126101;27;20039;-68
2022/08/17 02:11:18;;;;;;;41.55;33.42;;;19.30;99.90;;;;;;5133044;27;20122;-67
2022/08/17 02:13:45;;;;;;;47.22;34.15;;;19.30;99.90;;;;;;5133375;27;20115;-69
2022/08/17 02:16:12;;;;;;;45.10;34.70;;;19.30;99.90;;;;;;5132869;27;20047;-69
2022/08/17 02:18:38;;;;;;;41.53;33.47;;;19.20;99.90;;;;;;5133044;27;20114;-67
2022/08/17 02:21:04;;;;;;;47.47;35.92;;;19.20;99.90;;;;;;5133772;27;20118;-67
2022/08/17 02:23:34;;;;;;;66.00;39.30;;;19.20;99.90;;;;;;5135217;27;20084;-68
2022/08/17 02:26:00;;;;;;;45.30;34.58;;;19.20;99.90;;;;;;5119163;27;20558;-67
2022/08/17 02:28:27;;;;;;;42.60;33.08;;;19.20;99.90;;;;;;5131146;27;20481;-68
2022/08/17 02:30:54;;;;;;;48.00;34.88;;;19.20;99.90;;;;;;5133317;27;20043;-69
2022/08/17 02:33:20;;;;;;;94.72;40.45;;;19.20;99.90;;;;;;5125197;27;20118;-69
2022/08/17 02:35:46;;;;;;;64.53;37.67;;;19.10;99.90;;;;;;5114939;28;20124;-68
2022/08/17 02:38:12;;;;;;;47.30;33.50;;;19.20;99.90;;;;;;5119888;27;20070;-69
2022/08/17 02:40:39;;;;;;;138.80;37.85;;;19.20;99.90;;;;;;5121837;27;20055;-68
2022/08/17 02:43:06;;;;;;;86.75;37.70;;;19.20;99.90;;;;;;5115763;27;20043;-68
2022/08/17 02:45:32;;;;;;;199.07;42.20;;;19.10;99.90;;;;;;5126274;27;20728;-69
2022/08/17 02:47:58;;;;;;;50.42;33.55;;;19.10;99.90;;;;;;5133289;27;20072;-68
2022/08/17 02:50:24;;;;;;;108.40;38.72;;;19.10;99.90;;;;;;5134982;27;20485;-68
2022/08/17 02:52:51;;;;;;;61.63;35.95;;;19.10;99.90;;;;;;5134197;27;20039;-69
2022/08/17 02:55:19;;;;;;;48.67;32.58;;;19.00;99.90;;;;;;5134527;27;20485;-69
2022/08/17 02:57:45;;;;;;;;;;;19.00;99.90;;;;;;5119154;27;20118;-69
2022/08/17 03:00:20;;;;;;;43.40;32.10;;;19.10;99.90;;;;;;5133113;27;20323;-69
2022/08/17 03:02:45;;;;;;;132.10;36.03;;;19.00;99.90;;;;;;5114230;28;20035;-68
2022/08/17 03:05:13;;;;;;;50.00;31.33;;;19.00;99.90;;;;;;5126866;27;20121;-69
2022/08/17 03:07:39;;;;;;;55.38;31.30;;;19.00;99.90;;;;;;5132825;27;20031;-68
2022/08/17 03:10:07;;;;;;;44.25;31.13;;;19.00;99.90;;;;;;5128282;27;20090;-69
2022/08/17 03:12:35;;;;;;;51.60;31.25;;;19.00;99.90;;;;;;5113996;28;20035;-69
2022/08/17 03:15:06;;;;;;;66.63;30.88;;;19.00;99.90;;;;;;5112533;27;20112;-68
2022/08/17 03:17:32;;;;;;;36.83;30.13;;;18.90;99.90;;;;;;5125491;27;20563;-68
2022/08/17 03:19:58;;;;;;;61.65;30.08;;;18.90;99.90;;;;;;5117818;27;20031;-68
2022/08/17 03:22:26;;;;;;;55.25;33.10;;;18.80;99.90;;;;;;5113735;28;20032;-69
2022/08/17 03:24:53;;;;;;;55.03;34.97;;;18.90;99.90;;;;;;5113181;27;20138;-68
2022/08/17 03:27:19;;;;;;;67.65;36.78;;;18.80;99.90;;;;;;5129813;27;20038;-68
2022/08/17 03:29:45;;;;;;;60.80;35.20;;;18.80;99.90;;;;;;5131921;27;20039;-68
2022/08/17 03:32:12;;;;;;;102.53;39.58;;;18.80;99.90;;;;;;5123364;27;20071;-69
2022/08/17 03:34:37;;;;;;;56.50;33.70;;;18.80;99.90;;;;;;5117686;27;20055;-68
2022/08/17 03:37:03;;;;;;;97.43;35.83;;;18.90;99.90;;;;;;5134189;27;20187;-68
2022/08/17 03:39:29;;;;;;;79.55;33.00;;;18.90;99.90;;;;;;5120418;27;20046;-68
2022/08/17 03:42:11;;;;;;;92.30;35.80;;;18.90;99.90;;;;;;5114939;27;20039;-69
2022/08/17 03:44:37;;;;;;;97.68;36.30;;;18.80;99.90;;;;;;5115791;27;20043;-68
2022/08/17 03:58:00;;;;;;;69.72;30.25;;;18.80;99.90;;;;;;5130359;27;20055;-69
2022/08/17 04:00:26;;;;;;;39.80;28.40;;;18.80;99.90;;;;;;5119998;27;20039;-69
2022/08/17 04:02:53;;;;;;;120.40;32.78;;;18.70;99.90;;;;;;5131056;27;20089;-68
2022/08/17 04:05:19;;;;;;;49.38;24.48;;;18.60;99.90;;;;;;5131572;27;20093;-69
2022/08/17 04:07:45;;;;;;;46.42;27.25;;;18.50;99.90;;;;;;5120031;27;20035;-69
2022/08/17 04:10:11;;;;;;;39.05;26.27;;;18.50;99.90;;;;;;5122005;27;20623;-68
2022/08/17 04:12:49;;;;;;;47.22;26.02;;;18.50;99.90;;;;;;5130999;27;20048;-69
2022/08/17 04:15:17;;;;;;;53.13;28.23;;;18.50;99.90;;;;;;5131252;27;20035;-68
2022/08/17 04:17:43;;;;;;;62.67;26.85;;;18.40;99.90;;;;;;5127451;27;20039;-68
2022/08/17 04:20:14;;;;;;;54.67;26.63;;;18.40;99.90;;;;;;5128556;27;20035;-68
2022/08/17 04:22:56;;;;;;;59.47;27.23;;;18.30;99.90;;;;;;5112590;28;20050;-69
2022/08/17 04:25:22;;;;;;;53.10;29.42;;;18.30;99.90;;;;;;5103548;27;20043;-71
2022/08/17 04:27:47;;;;;;;71.18;29.60;;;18.30;99.90;;;;;;5131746;27;20405;-69
2022/08/17 04:30:13;;;;;;;45.47;29.05;;;18.30;99.90;;;;;;5129868;27;20043;-69
2022/08/17 04:32:50;;;;;;;47.30;28.48;;;18.30;99.90;;;;;;5115690;28;20484;-69
2022/08/17 04:35:21;;;;;;;49.17;29.33;;;18.30;99.90;;;;;;5126772;27;20058;-69
2022/08/17 04:37:47;;;;;;;43.33;27.30;;;18.40;99.90;;;;;;5132790;27;20039;-69
2022/08/17 04:43:09;;;;;;;42.78;29.58;;;18.40;99.90;;;;;;5129823;28;20083;-69
2022/08/17 04:45:53;;;;;;;49.33;31.90;;;18.30;99.90;;;;;;5130250;28;20112;-69
2022/08/17 04:48:19;;;;;;;48.35;31.83;;;18.40;99.90;;;;;;5131053;27;20119;-69
2022/08/17 04:50:48;;;;;;;51.38;30.65;;;18.40;99.90;;;;;;5128742;28;20043;-69
2022/08/17 04:53:14;;;;;;;38.22;28.90;;;18.50;99.90;;;;;;5131208;27;20557;-69
2022/08/17 04:55:40;;;;;;;35.58;28.52;;;18.50;99.90;;;;;;5127617;27;20059;-68
2022/08/17 04:58:06;;;;;;;68.57;32.65;;;18.50;99.90;;;;;;5131680;27;20405;-69
2022/08/17 05:00:32;;;;;;;53.90;31.77;;;18.50;99.90;;;;;;5125957;27;20047;-69
2022/08/17 05:02:59;;;;;;;32.70;27.50;;;18.50;99.90;;;;;;5128536;28;20035;-68
2022/08/17 05:05:31;;;;;;;48.40;30.70;;;18.50;99.90;;;;;;5117956;28;20406;-68
2022/08/17 05:08:00;;;;;;;42.97;30.67;;;18.50;99.90;;;;;;5127017;28;20514;-69
2022/08/17 05:10:30;;;;;;;39.22;30.67;;;18.60;99.90;;;;;;5113148;27;20067;-68
2022/08/17 05:13:01;;;;;;;44.03;31.23;;;18.60;99.90;;;;;;5113872;28;20054;-69
2022/08/17 05:15:28;;;;;;;48.22;32.72;;;18.70;99.90;;;;;;5129249;28;20518;-69
2022/08/17 05:17:54;;;;;;;47.50;32.47;;;18.70;99.90;;;;;;5100494;28;20068;-68
2022/08/17 05:20:20;;;;;;;38.22;30.65;;;18.80;99.90;;;;;;5126969;28;20039;-69
2022/08/17 05:22:52;;;;;;;43.03;33.30;;;18.70;99.90;;;;;;5131513;27;20509;-69
2022/08/17 05:25:26;;;;;;;37.03;29.20;;;18.80;99.90;;;;;;5113301;28;20134;-70
2022/08/17 05:27:53;;;;;;;37.13;30.48;;;18.80;99.90;;;;;;5123107;27;20062;-68
2022/08/17 05:30:19;;;;;;;37.63;29.52;;;18.80;99.90;;;;;;5111776;28;20048;-68
2022/08/17 05:32:59;;;;;;;39.40;31.00;;;18.90;99.90;;;;;;5130997;27;20039;-69
2022/08/17 05:35:28;;;;;;;41.50;32.28;;;18.90;99.90;;;;;;5131111;27;20038;-69
2022/08/17 05:37:54;;;;;;;37.85;30.67;;;19.00;99.90;;;;;;5128432;28;20039;-69
2022/08/17 05:40:21;;;;;;;39.03;31.60;;;19.00;99.90;;;;;;5118649;28;20044;-70
2022/08/17 05:42:48;;;;;;;38.28;31.17;;;19.00;99.90;;;;;;5120620;28;20043;-69
2022/08/17 05:45:17;;;;;;;41.78;32.30;;;19.00;99.90;;;;;;5129338;27;20434;-70
2022/08/17 05:47:45;;;;;;;39.80;29.25;;;19.10;99.90;;;;;;5133798;27;20038;-68
2022/08/17 05:50:24;;;;;;;44.90;32.47;;;19.10;99.90;;;;;;5135005;27;20043;-69
2022/08/17 05:53:20;;;;;;;46.00;33.97;;;19.10;99.90;;;;;;5133096;27;20096;-68
2022/08/17 05:56:07;;;;;;;50.58;33.58;;;19.10;99.90;;;;;;5134836;27;20039;-68
2022/08/17 05:58:39;;;;;;;50.38;35.97;;;19.10;99.90;;;;;;5135094;27;20043;-68
2022/08/17 06:01:24;;;;;;;53.67;36.50;;;19.10;99.90;;;;;;5134554;27;20043;-68
2022/08/17 06:04:07;;;;;;;47.03;34.90;;;19.20;99.90;;;;;;5133974;27;20035;-68
2022/08/17 06:06:47;;;;;;;63.05;38.38;;;19.20;99.90;;;;;;5131726;27;20092;-67
2022/08/17 06:09:25;;;;;;;47.38;35.10;;;19.20;99.90;;;;;;5124690;27;20505;-69
2022/08/17 06:12:12;;;;;;;54.33;38.25;;;19.20;99.90;;;;;;5134954;27;20043;-68
2022/08/17 06:14:57;;;;;;;49.92;36.65;;;19.30;99.90;;;;;;5132934;27;20362;-69
2022/08/17 06:17:23;;;;;;;58.10;39.60;;;19.30;99.90;;;;;;5114021;27;20047;-66
2022/08/17 06:19:58;;;;;;;57.28;40.83;;;19.20;99.90;;;;;;5122103;27;20043;-67
2022/08/17 06:22:31;;;;;;;52.05;38.63;;;19.30;99.90;;;;;;5134816;27;20099;-68
2022/08/17 06:25:03;;;;;;;54.42;41.15;;;19.30;99.90;;;;;;5125983;27;20058;-69
2022/08/17 06:27:40;;;;;;;51.22;36.33;;;19.30;99.90;;;;;;5129681;27;20531;-68
2022/08/17 06:30:12;;;;;;;60.08;42.28;;;19.30;99.90;;;;;;5126656;27;20051;-69
2022/08/17 06:32:43;;;;;;;66.18;43.28;;;19.40;99.90;;;;;;5133067;27;20083;-68
2022/08/17 06:35:14;;;;;;;56.97;41.55;;;19.40;99.90;;;;;;5133994;27;20505;-69
2022/08/17 06:37:43;;;;;;;61.83;43.83;;;19.50;99.90;;;;;;5125212;27;20493;-68
2022/08/17 06:40:44;;;;;;;58.70;42.22;;;19.50;99.90;;;;;;5133647;27;20046;-68
2022/08/17 06:43:21;;;;;;;61.95;43.25;;;19.50;99.90;;;;;;5110935;27;20066;-67
2022/08/17 06:46:17;;;;;;;55.33;40.35;;;19.50;99.90;;;;;;5131582;27;20398;-68
2022/08/17 06:49:32;;;;;;;56.78;41.53;;;19.50;99.90;;;;;;5112913;28;20415;-67
2022/08/17 06:52:21;;;;;;;56.08;41.63;;;19.60;99.90;;;;;;5114000;27;20493;-68
2022/08/17 06:55:39;;;;;;;56.20;40.83;;;19.70;99.90;;;;;;5134318;27;20047;-68
2022/08/17 06:58:07;;;;;;;54.88;41.63;;;19.70;99.90;;;;;;5062868;27;20081;-70
2022/08/17 07:00:39;;;;;;;58.30;42.63;;;19.60;99.90;;;;;;5099011;27;20042;-70
2022/08/17 07:03:29;;;;;;;55.22;41.78;;;19.50;99.90;;;;;;5133539;27;20053;-70
2022/08/17 07:06:15;;;;;;;63.00;44.40;;;19.50;99.90;;;;;;5128303;27;20492;-69
2022/08/17 07:08:54;;;;;;;62.85;42.53;;;19.60;99.90;;;;;;5122382;27;20080;-69
2022/08/17 07:11:28;;;;;;;63.53;44.22;;;19.60;99.90;;;;;;5134206;27;20102;-68
2022/08/17 07:14:35;;;;;;;59.80;42.50;;;19.60;99.90;;;;;;5131039;27;20042;-70
2022/08/17 07:17:06;;;;;;;60.63;40.88;;;19.70;99.90;;;;;;5106396;27;20060;-69
2022/08/17 07:19:35;;;;;;;65.63;42.30;;;19.70;99.90;;;;;;5113924;28;20036;-68
2022/08/17 07:22:26;;;;;;;61.28;42.92;;;19.70;99.90;;;;;;5114157;27;20040;-69
2022/08/17 07:25:10;;;;;;;56.63;40.28;;;19.70;99.90;;;;;;5115217;27;20511;-69
2022/08/17 07:27:37;;;;;;;65.93;44.45;;;19.80;99.90;;;;;;5128943;27;20513;-69
2022/08/17 07:30:25;;;;;;;67.97;46.27;;;19.90;99.90;;;;;;5127073;27;20040;-68
2022/08/17 07:32:56;;;;;;;67.07;44.83;;;19.90;99.90;;;;;;5112509;28;20459;-69
2022/08/17 07:35:28;;;;;;;75.15;48.05;;;20.00;99.90;;;;;;5101487;27;20047;-69
2022/08/17 07:38:23;;;;;;;84.53;51.35;;;20.00;99.90;;;;;;5129114;27;20483;-68
2022/08/17 07:41:01;;;;;;;78.47;53.17;;;20.00;99.90;;;;;;5131628;27;20035;-68
2022/08/17 07:43:39;;;;;;;81.18;54.92;;;20.10;99.90;;;;;;5128247;27;20061;-69
2022/08/17 07:49:06;;;;;;;80.60;54.70;;;20.10;99.90;;;;;;5132563;27;20125;-69
2022/08/17 07:51:46;;;;;;;85.88;57.55;;;20.10;99.90;;;;;;5132325;27;20047;-68
2022/08/17 07:54:21;;;;;;;93.50;58.08;;;20.20;99.90;;;;;;5111871;28;20036;-69
2022/08/17 07:56:48;;;;;;;94.63;60.03;;;20.20;99.90;;;;;;5127967;27;20059;-70
2022/08/17 07:59:36;;;;;;;98.03;61.10;;;20.20;99.90;;;;;;5124316;27;20490;-71
2022/08/17 08:02:37;;;;;;;97.70;61.83;;;20.30;99.90;;;;;;5129509;27;20039;-68
2022/08/17 08:05:11;;;;;;;102.05;61.70;;;20.40;99.90;;;;;;5123791;27;20453;-69
2022/08/17 08:07:49;;;;;;;100.38;60.38;;;20.50;99.90;;;;;;5133127;27;20039;-70
2022/08/17 08:10:40;;;;;;;82.35;54.35;;;20.50;99.90;;;;;;5115631;27;20116;-68
2022/08/17 08:13:10;;;;;;;81.15;56.10;;;20.70;99.90;;;;;;5095238;28;20114;-70
2022/08/17 08:15:44;;;;;;;80.03;51.17;;;20.70;99.90;;;;;;5129455;27;20051;-69
2022/08/17 08:18:25;;;;;;;77.47;52.97;;;20.80;99.90;;;;;;5133111;27;20106;-71
2022/08/17 08:20:59;;;;;;;73.47;49.30;;;20.90;99.90;;;;;;5132047;27;20126;-70
2022/08/17 08:23:40;;;;;;;68.25;50.55;;;21.00;99.90;;;;;;5131901;27;20398;-71
2022/08/17 08:26:38;;;;;;;68.03;48.78;;;21.10;99.90;;;;;;5131212;27;20055;-70
2022/08/17 08:29:17;;;;;;;68.30;49.60;;;21.10;99.90;;;;;;5126335;27;20122;-69
2022/08/17 08:31:58;;;;;;;69.18;49.40;;;21.10;99.90;;;;;;5131268;27;20046;-71
2022/08/17 08:34:44;;;;;;;64.32;47.85;;;21.20;99.90;;;;;;5107245;28;20118;-70
2022/08/17 08:37:26;;;;;;;65.15;47.75;;;21.30;99.90;;;;;;5127650;28;20054;-69
2022/08/17 08:40:29;;;;;;;61.67;46.03;;;21.30;99.90;;;;;;5129976;28;20043;-69
2022/08/17 08:43:02;;;;;;;59.00;45.47;;;21.50;99.90;;;;;;5140883;27;20047;-69
2022/08/17 08:45:49;;;;;;;58.38;38.83;;;21.60;99.90;;;;;;5128629;27;20110;-69
2022/08/17 08:48:44;;;;;;;53.63;40.42;;;21.80;99.90;;;;;;5123294;28;20047;-71
2022/08/17 08:51:29;;;;;;;55.53;42.88;;;21.70;99.90;;;;;;5120621;28;20557;-68
2022/08/17 08:53:57;;;;;;;53.33;42.85;;;21.60;99.90;;;;;;5129648;27;20108;-69
2022/08/17 08:56:31;;;;;;;49.60;41.20;;;21.70;99.90;;;;;;5130517;28;20036;-70
2022/08/17 08:59:23;;;;;;;50.30;40.20;;;21.70;99.90;;;;;;5108236;28;20040;-68
2022/08/17 09:02:12;;;;;;;48.75;39.50;;;21.70;99.90;;;;;;5124730;28;20628;-71
2022/08/17 09:04:40;;;;;;;48.87;38.40;;;21.80;99.90;;;;;;5129080;28;20486;-68
2022/08/17 09:07:17;;;;;;;43.92;36.20;;;21.70;99.90;;;;;;5108939;28;20375;-69
2022/08/17 09:09:51;;;;;;;45.58;38.30;;;21.80;99.90;;;;;;5104966;28;20048;-70
2022/08/17 09:12:34;;;;;;;40.83;35.33;;;21.80;99.90;;;;;;5126113;27;20035;-68
2022/08/17 09:15:17;;;;;;;43.15;36.50;;;21.90;99.90;;;;;;5125648;28;20042;-69
2022/08/17 09:18:00;;;;;;;46.50;38.03;;;22.00;99.90;;;;;;5132618;27;20047;-68
2022/08/17 09:20:32;;;;;;;42.70;34.92;;;22.00;99.90;;;;;;5127808;28;20443;-69
2022/08/17 09:23:17;;;;;;;42.88;34.05;;;22.00;99.90;;;;;;5125689;27;20085;-68
2022/08/17 09:25:57;;;;;;;43.58;34.33;;;22.00;99.90;;;;;;5135117;27;20130;-70
2022/08/17 09:28:32;;;;;;;44.38;34.88;;;22.10;99.90;;;;;;5136135;27;20047;-70
2022/08/17 09:31:05;;;;;;;43.08;36.28;;;22.10;99.90;;;;;;5134875;27;20043;-68
2022/08/17 09:33:34;;;;;;;43.97;36.08;;;22.10;99.90;;;;;;5134934;27;20537;-70
2022/08/17 09:36:17;;;;;;;42.20;34.25;;;22.10;99.90;;;;;;5134881;27;20505;-70
2022/08/17 09:39:08;;;;;;;40.75;34.95;;;22.30;99.90;;;;;;5123478;27;20028;-68
2022/08/17 09:41:49;;;;;;;41.25;34.97;;;22.50;99.90;;;;;;5122784;27;20051;-70
2022/08/17 09:44:59;;;;;;;37.92;31.38;;;22.60;99.90;;;;;;5132378;27;20078;-68
2022/08/17 09:47:31;;;;;;;45.85;35.45;;;22.70;99.90;;;;;;5120437;27;20039;-68
2022/08/17 09:50:18;;;;;;;42.42;34.70;;;23.00;99.90;;;;;;5133297;27;20078;-69
2022/08/17 09:52:44;;;;;;;37.38;31.88;;;22.90;99.90;;;;;;5131661;27;20071;-67
2022/08/17 09:55:10;;;;;;;43.70;32.08;;;22.80;99.90;;;;;;5131974;27;20128;-68
2022/08/17 09:57:51;;;;;;;37.83;31.17;;;22.70;99.90;;;;;;5125439;27;20172;-68
2022/08/17 10:00:26;;;;;;;33.53;29.35;;;22.70;99.90;;;;;;5131096;27;20042;-68
2022/08/17 10:03:49;;;;;;;35.35;30.13;;;22.70;99.90;;;;;;5129151;27;20039;-68
2022/08/17 10:06:23;;;;;;;28.92;24.30;;;22.60;99.90;;;;;;5070126;28;20215;-69
2022/08/17 10:09:08;;;;;;;33.10;25.38;;;22.50;99.90;;;;;;5126909;27;20093;-69
2022/08/17 10:14:30;;;;;;;36.00;30.58;;;22.50;99.90;;;;;;5125865;27;20050;-68
2022/08/17 10:17:14;;;;;;;38.85;29.80;;;22.50;99.90;;;;;;5120145;27;20035;-67
2022/08/17 10:20:00;;;;;;;40.83;29.27;;;22.50;99.90;;;;;;5118405;27;20035;-67
2022/08/17 10:28:10;;;;;;;41.35;30.58;;;22.20;99.90;;;;;;5135375;27;20041;-68
2022/08/17 10:30:46;;;;;;;41.03;31.00;;;22.10;99.90;;;;;;5135910;27;20047;-68
2022/08/17 10:33:19;;;;;;;36.88;29.42;;;22.10;99.90;;;;;;5118741;27;20048;-68
2022/08/17 10:35:47;;;;;;;37.90;29.00;;;22.20;99.90;;;;;;5114993;28;20596;-68
2022/08/17 10:38:38;;;;;;;32.17;26.52;;;22.20;99.90;;;;;;5115138;28;20039;-69
2022/08/17 10:41:19;;;;;;;32.53;27.15;;;22.30;99.90;;;;;;5132731;27;20035;-69
2022/08/17 10:44:04;;;;;;;31.13;26.45;;;22.50;99.90;;;;;;5135562;27;20176;-70
2022/08/17 10:47:05;;;;;;;32.70;26.88;;;22.50;99.90;;;;;;5135639;27;20122;-69
2022/08/17 10:49:34;;;;;;;29.98;25.05;;;22.50;99.90;;;;;;5132558;27;20136;-68
2022/08/17 10:52:26;;;;;;;28.08;23.73;;;22.50;99.90;;;;;;5134004;27;20071;-68
2022/08/17 10:54:55;;;;;;;27.63;21.52;;;22.60;99.90;;;;;;5135113;27;20047;-68
2022/08/17 10:57:32;;;;;;;24.58;19.67;;;22.60;99.90;;;;;;5107164;27;20039;-69
2022/08/17 11:00:20;;;;;;;24.90;21.97;;;22.70;99.90;;;;;;5124468;27;20048;-68
2022/08/17 11:02:51;;;;;;;33.13;22.33;;;22.70;99.90;;;;;;5132389;27;20494;-70
2022/08/17 11:05:31;;;;;;;23.13;19.33;;;22.90;99.90;;;;;;5120415;27;20385;-69
2022/08/17 11:08:18;;;;;;;28.35;19.65;;;22.80;99.90;;;;;;5117662;27;20048;-68
2022/08/17 11:11:10;;;;;;;24.52;19.23;;;22.80;99.90;;;;;;5133675;27;20502;-69
2022/08/17 11:14:04;;;;;;;24.65;19.35;;;22.80;99.90;;;;;;5101326;27;20414;-71
2022/08/17 11:16:49;;;;;;;23.88;17.55;;;22.90;99.90;;;;;;5127905;27;20103;-70
2022/08/17 11:19:33;;;;;;;26.23;17.17;;;23.00;99.90;;;;;;5115023;27;20118;-70
2022/08/17 11:22:20;;;;;;;20.92;16.77;;;23.20;99.90;;;;;;5130029;27;20134;-68
2022/08/17 11:24:51;;;;;;;23.83;15.55;;;23.30;99.90;;;;;;5117668;27;20034;-70
2022/08/17 11:27:28;;;;;;;22.77;16.30;;;23.40;99.90;;;;;;5128797;27;20065;-68
2022/08/17 11:30:10;;;;;;;18.65;14.25;;;23.60;99.90;;;;;;5115439;27;20039;-69
2022/08/17 11:32:48;;;;;;;22.00;14.13;;;23.80;99.90;;;;;;5121263;27;20051;-69
2022/08/17 11:35:19;;;;;;;18.15;13.85;;;23.80;99.90;;;;;;5115435;27;20429;-71
2022/08/17 11:38:25;;;;;;;19.38;14.00;;;24.10;99.90;;;;;;5122169;27;20044;-69
2022/08/17 11:40:59;;;;;;;18.48;13.90;;;24.10;99.90;;;;;;5093240;28;20047;-69
2022/08/17 11:44:06;;;;;;;19.40;12.50;;;24.20;99.90;;;;;;5122848;27;20039;-70
2022/08/17 11:52:47;;;;;;;15.50;12.38;;;24.10;99.90;;;;;;5128722;27;20066;-70
2022/08/17 11:55:30;;;;;;;17.55;13.40;;;24.00;99.90;;;;;;5121991;27;20091;-71
2022/08/17 11:58:00;;;;;;;17.02;12.95;;;24.00;99.90;;;;;;5129796;27;20079;-70
2022/08/17 12:00:44;;;;;;;22.15;13.95;;;23.90;99.90;;;;;;5119992;27;20043;-71
2022/08/17 12:03:33;;;;;;;20.08;13.30;;;23.90;99.90;;;;;;5100622;27;20039;-70
2022/08/17 12:06:04;;;;;;;;;;;23.80;99.90;;;;;;5103518;27;20051;-69
2022/08/17 12:08:32;;;;;;;21.50;15.43;;;23.80;99.90;;;;;;5115412;27;19926;-71
2022/08/17 12:11:25;;;;;;;19.92;16.25;;;23.70;99.90;;;;;;5118515;27;20039;-71
2022/08/17 12:13:55;;;;;;;26.63;18.88;;;23.60;99.90;;;;;;5119077;27;20050;-70
2022/08/17 12:16:21;;;;;;;23.83;18.73;;;23.60;99.90;;;;;;5112949;27;20078;-70
2022/08/17 12:18:56;;;;;;;29.65;18.52;;;23.70;99.90;;;;;;5132760;27;20081;-71
2022/08/17 12:21:29;;;;;;;21.70;16.38;;;23.60;99.90;;;;;;5126276;27;20114;-71
2022/08/17 12:23:58;;;;;;;20.58;16.63;;;23.60;99.90;;;;;;5132524;27;20041;-69
2022/08/17 12:26:31;;;;;;;16.48;14.55;;;23.70;99.90;;;;;;5125016;27;20051;-70
2022/08/17 12:29:04;;;;;;;19.05;12.65;;;23.70;99.90;;;;;;5128440;27;20039;-71
2022/08/17 12:31:35;;;;;;;15.52;11.88;;;23.80;99.90;;;;;;5113526;28;20043;-70
2022/08/17 12:34:03;;;;;;;14.88;10.93;;;23.80;99.90;;;;;;5118711;27;20165;-69
2022/08/17 12:36:30;;;;;;;19.80;13.73;;;23.70;99.90;;;;;;5117331;28;20043;-70
2022/08/17 12:39:05;;;;;;;22.10;14.30;;;23.70;99.90;;;;;;5124518;28;20036;-71
2022/08/17 12:41:37;;;;;;;16.58;14.18;;;23.80;99.90;;;;;;5127782;27;20543;-70
2022/08/17 12:44:16;;;;;;;21.40;16.30;;;23.80;99.90;;;;;;5112121;28;20502;-70
2022/08/17 12:46:48;;;;;;;18.02;14.45;;;23.70;99.90;;;;;;5113299;28;20046;-70
2022/08/17 12:49:36;;;;;;;18.60;13.63;;;23.80;99.90;;;;;;5112894;28;20494;-70
2022/08/17 12:52:12;;;;;;;18.13;15.57;;;23.70;99.90;;;;;;5140797;27;20574;-71
2022/08/17 12:54:39;;;;;;;17.77;14.55;;;23.70;99.90;;;;;;5113970;27;20116;-70
2022/08/17 12:57:13;;;;;;;19.58;14.23;;;23.60;99.90;;;;;;5122787;27;20485;-71
2022/08/17 12:59:43;;;;;;;19.67;12.95;;;23.60;99.90;;;;;;5130523;27;20405;-72
2022/08/17 13:02:38;;;;;;;18.48;13.02;;;23.50;99.90;;;;;;5119348;27;20126;-71
2022/08/17 13:05:19;;;;;;;15.57;12.80;;;23.50;99.90;;;;;;5122991;27;20086;-72
2022/08/17 13:07:45;;;;;;;16.75;14.13;;;23.40;99.90;;;;;;5118871;27;20424;-69
2022/08/17 13:10:21;;;;;;;22.55;13.60;;;23.40;99.90;;;;;;5136785;27;20371;-72
2022/08/17 13:12:49;;;;;;;20.90;13.15;;;23.40;99.90;;;;;;5135584;27;20059;-70
2022/08/17 13:15:42;;;;;;;16.05;13.93;;;23.40;99.90;;;;;;5120472;27;20521;-69
2022/08/17 13:18:46;;;;;;;16.45;13.35;;;23.40;99.90;;;;;;5123565;27;20394;-69
2022/08/17 13:21:18;;;;;;;16.70;12.65;;;23.40;99.90;;;;;;5137144;27;20054;-70
2022/08/17 13:24:02;;;;;;;16.38;11.07;;;23.30;99.90;;;;;;5136366;27;20489;-71
2022/08/17 13:26:38;;;;;;;14.93;11.18;;;23.30;99.90;;;;;;5136593;27;20051;-70
2022/08/17 13:29:26;;;;;;;13.40;10.55;;;23.20;99.90;;;;;;5136027;27;20051;-69
2022/08/17 13:32:14;;;;;;;21.70;11.75;;;23.20;99.90;;;;;;5135127;27;20058;-70
2022/08/17 13:34:53;;;;;;;15.07;12.05;;;23.20;99.90;;;;;;5136230;27;20035;-71
2022/08/17 13:37:34;;;;;;;20.33;11.48;;;23.20;99.90;;;;;;5136598;27;20466;-69
2022/08/17 13:40:08;;;;;;;18.92;12.43;;;23.10;99.90;;;;;;5135327;27;20073;-70